createdAt,value
2018-03-07T00:00:07.352Z,8.65
2018-03-07T00:02:35.053Z,11.40
2018-03-07T00:05:02.717Z,9.43
2018-03-07T00:07:30.274Z,9.32
2018-03-07T00:09:57.836Z,10.73
2018-03-07T00:12:25.498Z,10.65
2018-03-07T00:14:52.973Z,12.02
2018-03-07T00:17:20.731Z,11.02
2018-03-07T00:19:48.175Z,11.25
2018-03-07T00:22:15.632Z,20.40
2018-03-07T00:24:43.268Z,15.80
2018-03-07T00:27:10.992Z,12.73
2018-03-07T00:29:39.049Z,11.15
2018-03-07T00:32:06.810Z,14.68
2018-03-07T00:34:34.578Z,11.82
2018-03-07T00:37:02.296Z,11.63
2018-03-07T00:39:30.415Z,10.85
2018-03-07T00:41:58.187Z,9.95
2018-03-07T00:44:26.700Z,10.02
2018-03-07T00:46:55.238Z,9.50
2018-03-07T00:49:22.911Z,10.20
2018-03-07T00:51:50.630Z,9.30
2018-03-07T00:54:18.407Z,10.75
2018-03-07T00:56:46.165Z,9.48
2018-03-07T00:59:13.655Z,12.95
2018-03-07T01:01:41.187Z,11.65
2018-03-07T01:04:08.978Z,11.43
2018-03-07T01:06:36.422Z,9.60
2018-03-07T01:09:04.081Z,10.77
2018-03-07T01:11:31.658Z,12.82
2018-03-07T01:13:59.303Z,8.27
2018-03-07T01:16:27.060Z,8.48
2018-03-07T01:18:54.807Z,10.57
2018-03-07T01:21:22.499Z,10.95
2018-03-07T01:23:50.307Z,10.45
2018-03-07T01:26:18.528Z,10.45
2018-03-07T01:28:46.626Z,9.18
2018-03-07T01:31:14.387Z,12.20
2018-03-07T01:33:42.055Z,9.55
2018-03-07T01:36:09.911Z,10.82
2018-03-07T01:38:37.679Z,16.58
2018-03-07T01:41:05.301Z,8.52
2018-03-07T01:43:33.210Z,33.20
2018-03-07T01:46:00.829Z,9.65
2018-03-07T01:48:28.430Z,106.63
2018-03-07T01:50:56.062Z,158.10
2018-03-07T01:53:23.839Z,199.82
2018-03-07T01:55:51.903Z,166.00
2018-03-07T01:58:19.794Z,10.20
2018-03-07T02:00:47.240Z,50.97
2018-03-07T02:03:14.745Z,87.65
2018-03-07T02:05:42.576Z,47.33
2018-03-07T02:08:10.240Z,191.27
2018-03-07T02:10:38.098Z,125.03
2018-03-07T02:13:05.559Z,64.47
2018-03-07T02:15:33.218Z,21.98
2018-03-07T02:18:01.475Z,27.33
2018-03-07T02:20:29.034Z,135.05
2018-03-07T02:22:56.699Z,29.23
2018-03-07T02:25:24.461Z,8.48
2018-03-07T02:27:52.062Z,8.50
2018-03-07T02:30:20.112Z,12.60
2018-03-07T02:32:48.103Z,34.25
2018-03-07T02:35:15.648Z,15.00
2018-03-07T02:37:43.283Z,22.55
2018-03-07T02:40:11.171Z,16.10
2018-03-07T02:42:38.939Z,9.82
2018-03-07T02:45:06.728Z,11.35
2018-03-07T02:47:34.351Z,11.80
2018-03-07T02:50:01.839Z,10.40
2018-03-07T02:52:30.234Z,38.38
2018-03-07T02:54:57.683Z,9.68
2018-03-07T02:57:25.514Z,9.55
2018-03-07T02:59:53.591Z,10.15
2018-03-07T03:02:21.267Z,14.35
2018-03-07T03:04:48.718Z,10.30
2018-03-07T03:07:16.574Z,11.30
2018-03-07T03:09:44.213Z,10.60
2018-03-07T03:12:12.027Z,9.50
2018-03-07T03:14:39.740Z,10.05
2018-03-07T03:17:07.625Z,7.78
2018-03-07T03:19:35.697Z,15.10
2018-03-07T03:22:03.466Z,10.07
2018-03-07T03:24:31.211Z,9.93
2018-03-07T03:26:58.683Z,14.75
2018-03-07T03:29:26.679Z,11.07
2018-03-07T03:31:54.710Z,7.30
2018-03-07T03:34:22.241Z,11.00
2018-03-07T03:36:50.575Z,10.77
2018-03-07T03:39:18.306Z,11.23
2018-03-07T03:41:46.189Z,10.75
2018-03-07T03:44:13.642Z,11.15
2018-03-07T03:46:41.071Z,8.00
2018-03-07T03:49:08.575Z,11.77
2018-03-07T03:51:36.335Z,8.68
2018-03-07T03:54:04.093Z,9.85
2018-03-07T03:56:31.866Z,9.88
2018-03-07T03:58:59.314Z,8.88
2018-03-07T04:01:26.968Z,12.40
2018-03-07T04:03:54.537Z,10.07
2018-03-07T04:06:22.298Z,10.43
2018-03-07T04:08:49.761Z,13.18
2018-03-07T04:11:21.401Z,10.05
2018-03-07T04:13:49.198Z,35.78
2018-03-07T04:16:16.642Z,90.38
2018-03-07T04:18:44.384Z,52.62
2018-03-07T04:21:11.961Z,42.08
2018-03-07T04:23:39.912Z,10.93
2018-03-07T04:26:07.525Z,9.73
2018-03-07T04:28:35.254Z,69.43
2018-03-07T04:31:02.705Z,112.55
2018-03-07T04:33:31.702Z,10.35
2018-03-07T04:35:59.341Z,14.18
2018-03-07T04:38:27.418Z,42.45
2018-03-07T04:40:55.004Z,13.00
2018-03-07T04:43:22.467Z,13.43
2018-03-07T04:45:50.219Z,8.43
2018-03-07T04:48:17.686Z,8.95
2018-03-07T04:50:45.316Z,163.02
2018-03-07T04:53:12.768Z,176.75
2018-03-07T04:55:40.364Z,9.75
2018-03-07T04:58:08.409Z,7.75
2018-03-07T05:00:36.093Z,13.43
2018-03-07T05:03:03.541Z,9.65
2018-03-07T05:05:30.986Z,67.35
2018-03-07T05:07:58.866Z,12.50
2018-03-07T05:10:26.519Z,11.43
2018-03-07T05:12:54.270Z,8.80
2018-03-07T05:15:21.753Z,7.95
2018-03-07T05:17:49.211Z,10.70
2018-03-07T05:20:17.682Z,7.43
2018-03-07T05:22:45.742Z,7.72
2018-03-07T05:25:13.403Z,9.50
2018-03-07T05:27:40.974Z,8.82
2018-03-07T05:30:08.737Z,10.32
2018-03-07T05:32:36.220Z,8.10
2018-03-07T05:35:03.692Z,8.23
2018-03-07T05:37:31.122Z,8.07
2018-03-07T05:39:58.570Z,7.72
2018-03-07T05:42:26.314Z,10.35
2018-03-07T05:44:53.754Z,11.88
2018-03-07T05:47:21.461Z,7.72
2018-03-07T05:49:49.330Z,9.18
2018-03-07T05:52:16.771Z,67.87
2018-03-07T05:54:44.750Z,8.18
2018-03-07T05:57:12.210Z,7.93
2018-03-07T05:59:39.935Z,10.27
2018-03-07T06:02:07.734Z,12.15
2018-03-07T06:04:35.194Z,10.13
2018-03-07T06:07:02.678Z,10.63
2018-03-07T06:09:30.126Z,12.23
2018-03-07T06:11:57.567Z,12.77
2018-03-07T06:14:25.363Z,10.27
2018-03-07T06:16:52.790Z,13.75
2018-03-07T06:19:20.237Z,8.23
2018-03-07T06:21:47.975Z,10.45
2018-03-07T06:26:48.749Z,10.10
2018-03-07T06:29:16.340Z,11.60
2018-03-07T06:31:43.937Z,7.65
2018-03-07T06:34:11.582Z,13.02
2018-03-07T06:36:39.014Z,9.27
2018-03-07T06:39:06.763Z,13.77
2018-03-07T06:41:34.562Z,11.70
2018-03-07T06:44:02.606Z,10.48
2018-03-07T06:46:30.053Z,9.82
2018-03-07T06:48:57.727Z,9.95
2018-03-07T06:51:25.587Z,11.10
2018-03-07T06:53:53.348Z,13.82
2018-03-07T06:56:20.809Z,9.88
2018-03-07T06:58:48.247Z,10.25
2018-03-07T07:01:15.895Z,8.75
2018-03-07T07:03:43.626Z,13.25
2018-03-07T07:06:11.144Z,12.30
2018-03-07T07:08:38.606Z,31.92
2018-03-07T07:11:06.167Z,11.38
2018-03-07T07:13:34.233Z,18.23
2018-03-07T07:16:01.696Z,9.93
2018-03-07T07:18:29.445Z,21.65
2018-03-07T07:20:57.525Z,28.35
2018-03-07T07:23:25.596Z,90.68
2018-03-07T07:25:53.047Z,45.58
2018-03-07T07:28:20.809Z,13.65
2018-03-07T07:30:48.255Z,32.67
2018-03-07T07:33:15.941Z,11.12
2018-03-07T07:35:43.385Z,22.15
2018-03-07T07:38:11.046Z,15.32
2018-03-07T07:40:38.710Z,12.00
2018-03-07T07:43:06.481Z,10.77
2018-03-07T07:45:35.473Z,10.05
2018-03-07T07:48:04.322Z,7.30
2018-03-07T07:50:31.766Z,11.55
2018-03-07T07:53:00.165Z,11.98
2018-03-07T07:55:27.968Z,13.43
2018-03-07T07:57:55.483Z,7.03
2018-03-07T08:00:23.250Z,19.27
2018-03-07T08:02:50.677Z,11.18
2018-03-07T08:05:18.414Z,9.05
2018-03-07T08:07:46.269Z,8.73
2018-03-07T08:10:13.952Z,7.93
2018-03-07T08:12:41.388Z,7.47
2018-03-07T08:15:09.451Z,10.75
2018-03-07T08:17:36.923Z,14.30
2018-03-07T08:20:04.795Z,31.55
2018-03-07T08:22:32.555Z,15.57
2018-03-07T08:25:00.006Z,43.50
2018-03-07T08:27:27.454Z,12.75
2018-03-07T08:29:55.412Z,33.55
2018-03-07T08:32:22.890Z,9.00
2018-03-07T08:34:50.658Z,18.67
2018-03-07T08:37:18.128Z,25.55
2018-03-07T08:39:45.976Z,11.85
2018-03-07T08:42:13.915Z,10.60
2018-03-07T08:44:41.515Z,13.45
2018-03-07T08:47:09.186Z,55.83
2018-03-07T08:49:36.642Z,29.12
2018-03-07T08:52:04.091Z,11.10
2018-03-07T08:54:31.638Z,30.15
2018-03-07T08:56:59.082Z,32.03
2018-03-07T08:59:26.525Z,12.60
2018-03-07T09:01:54.114Z,49.90
2018-03-07T09:04:21.558Z,131.50
2018-03-07T09:06:49.116Z,39.15
2018-03-07T09:09:17.475Z,9.45
2018-03-07T09:11:45.275Z,44.38
2018-03-07T09:14:13.146Z,9.23
2018-03-07T09:16:40.911Z,44.47
2018-03-07T09:19:08.350Z,49.63
2018-03-07T09:21:36.019Z,165.50
2018-03-07T09:24:03.588Z,10.27
2018-03-07T09:26:31.354Z,63.38
2018-03-07T09:28:59.087Z,29.55
2018-03-07T09:31:26.775Z,36.30
2018-03-07T09:33:54.199Z,72.80
2018-03-07T09:36:21.795Z,35.38
2018-03-07T09:38:49.866Z,33.22
2018-03-07T09:41:17.635Z,26.70
2018-03-07T09:43:45.327Z,30.10
2018-03-07T09:46:12.771Z,21.48
2018-03-07T09:48:40.256Z,67.28
2018-03-07T09:51:08.078Z,38.85
2018-03-07T09:53:35.830Z,13.57
2018-03-07T09:56:03.795Z,63.03
2018-03-07T09:58:31.419Z,33.78
2018-03-07T10:00:59.054Z,11.85
2018-03-07T10:03:27.136Z,18.40
2018-03-07T10:05:54.599Z,58.20
2018-03-07T10:08:22.125Z,20.08
2018-03-07T10:10:49.585Z,48.53
2018-03-07T10:13:17.339Z,59.72
2018-03-07T10:15:45.010Z,16.60
2018-03-07T10:18:12.596Z,16.42
2018-03-07T10:20:40.832Z,14.70
2018-03-07T10:23:08.270Z,46.92
2018-03-07T10:25:36.346Z,23.17
2018-03-07T10:28:03.801Z,62.08
2018-03-07T10:30:31.862Z,13.10
2018-03-07T10:32:59.319Z,45.67
2018-03-07T10:35:27.202Z,12.57
2018-03-07T10:37:54.847Z,16.27
2018-03-07T10:40:22.349Z,29.63
2018-03-07T10:42:49.890Z,9.10
2018-03-07T10:45:17.650Z,14.85
2018-03-07T10:47:45.726Z,41.25
2018-03-07T10:50:13.364Z,25.17
2018-03-07T10:52:40.831Z,79.20
2018-03-07T10:55:08.282Z,70.95
2018-03-07T10:57:35.746Z,33.42
2018-03-07T11:00:03.190Z,36.35
2018-03-07T11:02:31.279Z,29.92
2018-03-07T11:04:58.855Z,10.10
2018-03-07T11:07:26.626Z,27.48
2018-03-07T11:09:54.349Z,11.15
2018-03-07T11:12:22.022Z,21.37
2018-03-07T11:14:49.902Z,12.60
2018-03-07T11:17:17.675Z,11.57
2018-03-07T11:19:45.294Z,12.93
2018-03-07T11:22:13.080Z,22.63
2018-03-07T11:24:40.650Z,12.67
2018-03-07T11:27:08.304Z,15.73
2018-03-07T11:29:36.191Z,19.47
2018-03-07T11:32:03.641Z,17.67
2018-03-07T11:34:31.342Z,12.67
2018-03-07T11:36:59.050Z,23.33
2018-03-07T11:39:26.503Z,30.20
2018-03-07T11:41:54.397Z,17.87
2018-03-07T11:44:22.043Z,20.93
2018-03-07T11:46:49.789Z,16.70
2018-03-07T11:49:17.279Z,31.97
2018-03-07T11:51:44.750Z,39.37
2018-03-07T11:54:12.462Z,15.77
2018-03-07T11:56:39.922Z,195.00
2018-03-07T11:59:07.700Z,389.93
2018-03-07T12:01:35.467Z,385.43
2018-03-07T12:04:03.007Z,449.27
2018-03-07T12:06:30.794Z,485.60
2018-03-07T12:08:58.454Z,503.40
2018-03-07T12:11:25.910Z,572.83
2018-03-07T12:13:53.410Z,561.93
2018-03-07T12:16:21.167Z,561.83
2018-03-07T12:18:48.888Z,601.93
2018-03-07T12:21:16.355Z,628.67
2018-03-07T12:23:43.930Z,612.23
2018-03-07T12:26:11.709Z,605.37
2018-03-07T12:28:39.467Z,568.90
2018-03-07T12:31:07.446Z,546.67
2018-03-07T12:33:36.203Z,613.43
2018-03-07T12:36:03.831Z,561.27
2018-03-07T12:38:32.353Z,597.20
2018-03-07T12:40:59.801Z,600.47
2018-03-07T12:43:27.270Z,603.63
2018-03-07T12:45:54.762Z,581.87
2018-03-07T12:48:22.372Z,572.03
2018-03-07T12:50:50.225Z,626.47
2018-03-07T12:53:17.939Z,642.57
2018-03-07T12:55:45.638Z,676.53
2018-03-07T12:58:13.154Z,642.33
2018-03-07T13:00:40.830Z,660.77
2018-03-07T13:03:08.348Z,650.43
2018-03-07T13:05:36.117Z,669.73
2018-03-07T13:08:03.579Z,655.13
2018-03-07T13:10:31.025Z,648.50
2018-03-07T13:12:58.610Z,646.53
2018-03-07T13:15:26.051Z,635.10
2018-03-07T13:17:53.517Z,612.40
2018-03-07T13:20:21.410Z,625.30
2018-03-07T13:22:49.038Z,602.77
2018-03-07T13:25:16.507Z,581.67
2018-03-07T13:27:44.178Z,585.60
2018-03-07T13:30:12.037Z,589.70
2018-03-07T13:32:39.847Z,552.10
2018-03-07T13:35:07.562Z,538.20
2018-03-07T13:37:35.315Z,537.37
2018-03-07T13:40:03.116Z,537.47
2018-03-07T13:42:30.731Z,537.57
2018-03-07T13:44:58.431Z,539.67
2018-03-07T13:47:25.905Z,524.20
2018-03-07T13:49:53.410Z,496.73
2018-03-07T13:52:21.221Z,503.13
2018-03-07T13:54:48.675Z,523.50
2018-03-07T13:57:16.131Z,531.73
2018-03-07T13:59:43.855Z,530.07
2018-03-07T14:02:11.304Z,542.57
2018-03-07T14:04:39.067Z,302.50
2018-03-07T14:07:06.847Z,442.60
2018-03-07T14:09:34.290Z,440.37
2018-03-07T14:12:01.796Z,379.70
2018-03-07T14:14:29.249Z,385.93
2018-03-07T14:16:56.701Z,363.03
2018-03-07T14:19:24.177Z,347.23
2018-03-07T14:21:51.933Z,344.20
2018-03-07T14:24:19.766Z,343.33
2018-03-07T14:26:47.225Z,303.97
2018-03-07T14:29:14.701Z,289.03
2018-03-07T14:31:42.169Z,270.53
2018-03-07T14:34:10.093Z,281.93
2018-03-07T14:36:37.522Z,273.30
2018-03-07T14:39:06.239Z,262.37
2018-03-07T14:41:33.998Z,237.93
2018-03-07T14:44:02.402Z,236.57
2018-03-07T14:46:29.867Z,238.37
2018-03-07T14:48:57.527Z,237.03
2018-03-07T14:51:25.183Z,221.33
2018-03-07T14:53:52.942Z,216.10
2018-03-07T14:56:20.588Z,213.90
2018-03-07T14:58:48.038Z,223.40
2018-03-07T15:01:15.625Z,214.50
2018-03-07T15:03:43.407Z,249.07
2018-03-07T15:06:11.178Z,219.20
2018-03-07T15:08:38.726Z,219.60
2018-03-07T15:11:06.181Z,208.43
2018-03-07T15:13:34.019Z,215.13
2018-03-07T15:16:01.461Z,209.53
2018-03-07T15:18:28.931Z,215.70
2018-03-07T15:20:56.563Z,235.77
2018-03-07T15:23:24.586Z,237.60
2018-03-07T15:25:52.347Z,209.80
2018-03-07T15:28:19.919Z,205.00
2018-03-07T15:30:47.572Z,220.30
2018-03-07T15:33:15.247Z,227.20
2018-03-07T15:35:42.699Z,221.07
2018-03-07T15:38:11.169Z,201.00
2018-03-07T15:40:38.828Z,198.20
2018-03-07T15:43:06.690Z,216.73
2018-03-07T15:45:34.158Z,256.77
2018-03-07T15:48:01.605Z,204.30
2018-03-07T15:50:29.238Z,237.65
2018-03-07T15:52:56.826Z,183.25
2018-03-07T15:55:24.601Z,186.25
2018-03-07T15:57:52.245Z,173.82
2018-03-07T16:00:19.716Z,204.73
2018-03-07T16:02:47.280Z,217.43
2018-03-07T16:05:15.035Z,199.40
2018-03-07T16:07:42.685Z,185.37
2018-03-07T16:10:10.126Z,196.82
2018-03-07T16:12:37.896Z,287.55
2018-03-07T16:15:05.378Z,247.05
2018-03-07T16:17:33.226Z,206.50
2018-03-07T16:20:00.688Z,211.75
2018-03-07T16:22:28.652Z,305.17
2018-03-07T16:24:56.214Z,193.02
2018-03-07T16:27:25.220Z,240.90
2018-03-07T16:29:52.974Z,336.87
2018-03-07T16:32:20.460Z,194.65
2018-03-07T16:34:48.098Z,251.32
2018-03-07T16:37:15.665Z,264.58
2018-03-07T16:39:43.426Z,281.20
2018-03-07T16:42:11.190Z,217.57
2018-03-07T16:44:38.842Z,209.77
2018-03-07T16:47:06.698Z,244.50
2018-03-07T16:49:34.447Z,327.83
2018-03-07T16:52:02.125Z,320.27
2018-03-07T16:54:29.894Z,282.42
2018-03-07T16:56:57.502Z,273.27
2018-03-07T16:59:28.005Z,246.55
2018-03-07T17:01:55.633Z,258.08
2018-03-07T17:04:23.535Z,276.10
2018-03-07T17:06:51.194Z,232.93
2018-03-07T17:09:18.669Z,198.07
2018-03-07T17:11:46.520Z,272.60
2018-03-07T17:14:14.191Z,298.42
2018-03-07T17:16:41.877Z,194.52
2018-03-07T17:19:10.728Z,97.82
2018-03-07T17:21:38.386Z,28.38
2018-03-07T17:24:07.087Z,16.92
2018-03-07T17:26:34.942Z,66.68
2018-03-07T17:29:02.399Z,254.63
2018-03-07T17:31:30.471Z,291.08
2018-03-07T17:33:58.410Z,17.52
2018-03-07T17:36:25.889Z,27.85
2018-03-07T17:38:53.763Z,19.37
2018-03-07T17:41:21.716Z,18.08
2018-03-07T17:43:49.180Z,14.75
2018-03-07T17:46:16.629Z,15.55
2018-03-07T17:48:44.194Z,34.38
2018-03-07T17:51:11.848Z,52.53
2018-03-07T17:53:39.322Z,19.33
2018-03-07T17:56:09.380Z,14.65
2018-03-07T17:58:37.093Z,17.05
2018-03-07T18:01:04.765Z,24.48
2018-03-07T18:03:32.213Z,13.15
2018-03-07T18:05:59.650Z,25.50
2018-03-07T18:08:27.096Z,16.35
2018-03-07T18:10:55.513Z,14.93
2018-03-07T18:13:23.439Z,19.62
2018-03-07T18:15:51.863Z,25.30
2018-03-07T18:18:19.839Z,40.97
2018-03-07T18:20:47.601Z,19.12
2018-03-07T18:23:17.834Z,34.67
2018-03-07T18:25:45.511Z,19.52
2018-03-07T18:28:13.218Z,44.58
2018-03-07T18:30:41.110Z,15.93
2018-03-07T18:33:08.878Z,12.32
2018-03-07T18:35:36.322Z,18.05
2018-03-07T18:38:04.415Z,31.05
2018-03-07T18:40:32.003Z,91.25
2018-03-07T18:42:59.522Z,31.08
2018-03-07T18:45:27.393Z,283.33
2018-03-07T18:47:55.066Z,181.52
2018-03-07T18:50:22.522Z,187.15
2018-03-07T18:52:50.070Z,160.23
2018-03-07T18:55:17.730Z,150.38
2018-03-07T18:57:45.176Z,133.15
2018-03-07T19:00:12.721Z,140.10
2018-03-07T19:02:40.166Z,166.10
2018-03-07T19:05:07.974Z,164.02
2018-03-07T19:07:35.766Z,186.05
2018-03-07T19:10:03.384Z,145.23
2018-03-07T19:12:30.874Z,149.73
2018-03-07T19:14:59.097Z,142.27
2018-03-07T19:17:26.546Z,169.55
2018-03-07T19:19:54.250Z,176.10
2018-03-07T19:22:22.023Z,175.38
2018-03-07T19:24:49.508Z,131.30
2018-03-07T19:27:16.952Z,153.65
2018-03-07T19:29:44.493Z,144.20
2018-03-07T19:32:12.156Z,146.15
2018-03-07T19:34:39.801Z,155.73
2018-03-07T19:37:07.254Z,180.27
2018-03-07T19:39:34.826Z,135.50
2018-03-07T19:42:02.502Z,171.95
2018-03-07T19:44:30.368Z,40.17
2018-03-07T19:46:58.135Z,178.95
2018-03-07T19:49:25.889Z,98.62
2018-03-07T19:51:53.528Z,160.37
2018-03-07T19:54:21.309Z,195.85
2018-03-07T19:56:49.184Z,228.82
2018-03-07T19:59:16.654Z,147.02
2018-03-07T20:01:44.593Z,141.57
2018-03-07T20:04:12.169Z,166.07
2018-03-07T20:06:39.925Z,158.63
2018-03-07T20:09:07.676Z,136.70
2018-03-07T20:11:35.122Z,135.52
2018-03-07T20:14:02.920Z,160.75
2018-03-07T20:16:30.634Z,147.55
2018-03-07T20:18:58.074Z,158.80
2018-03-07T20:21:26.826Z,135.73
2018-03-07T20:23:54.586Z,137.98
2018-03-07T20:26:22.043Z,165.73
2018-03-07T20:28:49.978Z,158.85
2018-03-07T20:31:17.578Z,161.85
2018-03-07T20:33:45.028Z,135.52
2018-03-07T20:36:12.474Z,139.60
2018-03-07T20:38:40.259Z,111.05
2018-03-07T20:41:07.705Z,133.45
2018-03-07T20:43:35.778Z,135.20
2018-03-07T20:46:03.316Z,183.77
2018-03-07T20:48:31.315Z,164.25
2018-03-07T20:50:59.003Z,159.77
2018-03-07T20:53:26.582Z,125.12
2018-03-07T20:55:55.271Z,155.12
2018-03-07T20:58:23.287Z,161.10
2018-03-07T21:00:52.273Z,160.75
2018-03-07T21:03:20.527Z,163.30
2018-03-07T21:05:50.178Z,174.77
2018-03-07T21:08:19.877Z,170.60
2018-03-07T21:10:48.701Z,152.98
2018-03-07T21:13:16.649Z,202.00
2018-03-07T21:15:45.622Z,167.37
2018-03-07T21:18:13.103Z,157.52
2018-03-07T21:20:40.871Z,157.32
2018-03-07T21:23:08.619Z,155.12
2018-03-07T21:25:36.258Z,152.77
2018-03-07T21:28:03.701Z,154.93
2018-03-07T21:30:31.293Z,128.98
2018-03-07T21:32:58.886Z,132.82
2018-03-07T21:35:26.802Z,151.63
2018-03-07T21:37:54.522Z,158.20
2018-03-07T21:40:22.238Z,154.12
2018-03-07T21:42:49.817Z,158.25
2018-03-07T21:45:17.276Z,164.43
2018-03-07T21:47:44.744Z,159.80
2018-03-07T21:50:12.477Z,157.82
2018-03-07T21:52:39.931Z,161.75
2018-03-07T21:55:07.587Z,160.82
2018-03-07T21:57:35.331Z,159.32
2018-03-07T22:00:02.882Z,158.23
2018-03-07T22:02:30.695Z,157.70
2018-03-07T22:04:58.363Z,158.75
2018-03-07T22:07:26.521Z,154.90
2018-03-07T22:09:54.295Z,156.45
2018-03-07T22:12:22.060Z,157.45
2018-03-07T22:14:49.727Z,159.20
2018-03-07T22:17:17.587Z,163.18
2018-03-07T22:19:45.050Z,132.77
2018-03-07T22:22:12.903Z,156.48
2018-03-07T22:24:40.455Z,152.45
2018-03-07T22:27:08.334Z,158.68
2018-03-07T22:29:36.361Z,160.95
2018-03-07T22:32:03.851Z,159.77
2018-03-07T22:34:31.315Z,155.30
2018-03-07T22:36:59.103Z,164.48
2018-03-07T22:39:26.651Z,128.77
2018-03-07T22:41:54.638Z,157.30
2018-03-07T22:44:22.086Z,166.32
2018-03-07T22:46:49.848Z,160.27
2018-03-07T22:49:17.678Z,161.30
2018-03-07T22:51:45.126Z,134.80
2018-03-07T22:54:12.674Z,118.90
2018-03-07T22:56:40.991Z,125.15
2018-03-07T22:59:08.827Z,159.68
2018-03-07T23:01:36.533Z,157.15
2018-03-07T23:04:04.186Z,154.68
2018-03-07T23:06:31.836Z,160.25
2018-03-07T23:08:59.715Z,155.43
2018-03-07T23:11:27.481Z,161.52
2018-03-07T23:13:55.247Z,159.43
2018-03-07T23:16:22.973Z,132.98
2018-03-07T23:18:52.290Z,159.37
2018-03-07T23:21:19.967Z,167.52
2018-03-07T23:23:47.415Z,172.68
2018-03-07T23:26:15.167Z,159.05
2018-03-07T23:28:42.935Z,177.55
2018-03-07T23:31:10.403Z,153.62
2018-03-07T23:33:37.967Z,153.23
2018-03-07T23:36:06.038Z,156.35
2018-03-07T23:38:34.197Z,154.57
2018-03-07T23:41:02.181Z,158.82
2018-03-07T23:43:29.737Z,129.52
2018-03-07T23:45:57.478Z,156.40
2018-03-07T23:48:25.292Z,157.98
2018-03-07T23:50:52.815Z,155.63
2018-03-07T23:53:20.312Z,151.37
2018-03-07T23:55:47.782Z,157.50
2018-03-07T23:58:15.617Z,130.32
